createdAt,value
2022-11-28T00:00:31.788Z,51.325855
2022-11-28T00:01:31.848Z,51.325882
2022-11-28T00:02:32.119Z,51.325844
2022-11-28T00:03:32.162Z,51.325848
2022-11-28T00:04:31.787Z,51.325806
2022-11-28T00:05:31.928Z,51.325737
2022-11-28T00:06:31.936Z,51.325733
2022-11-28T00:07:31.711Z,51.325718
2022-11-28T00:08:31.991Z,51.325748
2022-11-28T00:09:31.641Z,51.325699
2022-11-28T00:10:31.626Z,51.325752
2022-11-28T00:11:31.607Z,51.325756
2022-11-28T00:12:31.596Z,51.325764
2022-11-28T00:13:31.612Z,51.325745
2022-11-28T00:14:31.576Z,51.325718
2022-11-28T00:15:31.540Z,51.325768
2022-11-28T00:16:31.643Z,51.325760
2022-11-28T00:17:31.500Z,51.325779
2022-11-28T00:18:31.521Z,51.325768
2022-11-28T00:19:31.548Z,51.325798
2022-11-28T00:20:31.459Z,51.325798
2022-11-28T00:21:31.432Z,51.325779
2022-11-28T00:22:31.743Z,51.325741
2022-11-28T00:23:31.445Z,51.325794
2022-11-28T00:24:31.388Z,51.325798
2022-11-28T00:25:31.613Z,51.325752
2022-11-28T00:26:31.371Z,51.325733
2022-11-28T00:27:31.649Z,51.325745
2022-11-28T00:28:31.471Z,51.325756
2022-11-28T00:29:31.330Z,51.325760
2022-11-28T00:30:31.286Z,51.325722
2022-11-28T00:31:31.351Z,51.325768
2022-11-28T00:32:31.298Z,51.325794
2022-11-28T00:33:31.286Z,51.325756
2022-11-28T00:34:31.217Z,51.325745
2022-11-28T00:35:31.274Z,51.325756
2022-11-28T00:36:31.423Z,51.325741
2022-11-28T00:37:31.166Z,51.325726
2022-11-28T00:38:31.180Z,51.325718
2022-11-28T00:39:31.253Z,51.325718
2022-11-28T00:40:31.726Z,51.325729
2022-11-28T00:41:31.281Z,51.325710
2022-11-28T00:42:31.093Z,51.325714
2022-11-28T00:43:31.112Z,51.325699
2022-11-28T00:44:31.240Z,51.325706
2022-11-28T00:45:31.240Z,51.325710
2022-11-28T00:46:31.019Z,51.325687
2022-11-28T00:47:30.994Z,51.325726
2022-11-28T00:48:31.008Z,51.325741
2022-11-28T00:49:30.960Z,51.325737
2022-11-28T00:50:31.113Z,51.325756
2022-11-28T00:51:30.988Z,51.325760
2022-11-28T00:52:30.910Z,51.325779
2022-11-28T00:53:31.208Z,51.325748
2022-11-28T00:54:31.158Z,51.325741
2022-11-28T00:55:31.328Z,51.325756
2022-11-28T00:56:30.853Z,51.325699
2022-11-28T00:57:30.820Z,51.325706
2022-11-28T00:58:30.847Z,51.325630
2022-11-28T00:59:30.802Z,51.325775
2022-11-28T01:00:30.776Z,51.325737
2022-11-28T01:01:30.807Z,51.325699
2022-11-28T01:02:31.184Z,51.325741
2022-11-28T01:03:30.757Z,51.325722
2022-11-28T01:04:30.704Z,51.325668
2022-11-28T01:05:30.699Z,51.325665
2022-11-28T01:06:30.691Z,51.325687
2022-11-28T01:07:30.912Z,51.325733
2022-11-28T01:08:30.957Z,51.325748
2022-11-28T01:09:30.626Z,51.325745
2022-11-28T01:10:30.619Z,51.325756
2022-11-28T01:11:30.593Z,51.325779
2022-11-28T01:12:30.584Z,51.325779
2022-11-28T01:13:30.598Z,51.325821
2022-11-28T01:14:30.553Z,51.325764
2022-11-28T01:15:30.549Z,51.325764
2022-11-28T01:16:30.623Z,51.325756
2022-11-28T01:17:30.612Z,51.325798
2022-11-28T01:18:30.523Z,51.325844
2022-11-28T01:19:30.452Z,51.325832
2022-11-28T01:20:30.483Z,51.325836
2022-11-28T01:21:30.675Z,51.325783
2022-11-28T01:22:30.409Z,51.325745
2022-11-28T01:23:30.488Z,51.325764
2022-11-28T01:24:30.571Z,51.325764
2022-11-28T01:25:30.364Z,51.325748
2022-11-28T01:26:30.343Z,51.325718
2022-11-28T01:27:30.324Z,51.325706
2022-11-28T01:28:30.342Z,51.325729
2022-11-28T01:29:30.536Z,51.325756
2022-11-28T01:30:30.936Z,51.325726
2022-11-28T01:31:30.734Z,51.325726
2022-11-28T01:32:30.344Z,51.325733
2022-11-28T01:33:30.437Z,51.325729
2022-11-28T01:34:30.505Z,51.325718
2022-11-28T01:35:30.582Z,51.325695
2022-11-28T01:36:30.462Z,51.325714
2022-11-28T01:37:30.473Z,51.325729
2022-11-28T01:38:30.166Z,51.325684
2022-11-28T01:39:30.350Z,51.325729
2022-11-28T01:40:30.096Z,51.325760
2022-11-28T01:41:30.353Z,51.325718
2022-11-28T01:42:30.068Z,51.325768
2022-11-28T01:43:30.082Z,51.325695
2022-11-28T01:44:30.037Z,51.325680
2022-11-28T01:45:30.045Z,51.325733
2022-11-28T01:46:30.151Z,51.325768
2022-11-28T01:47:29.975Z,51.325752
2022-11-28T01:48:29.989Z,51.325798
2022-11-28T01:49:29.942Z,51.325756
2022-11-28T01:50:29.928Z,51.325748
2022-11-28T01:51:29.903Z,51.325718
2022-11-28T01:52:29.888Z,51.325726
2022-11-28T01:53:29.906Z,51.325756
2022-11-28T01:54:29.851Z,51.325764
2022-11-28T01:55:29.921Z,51.325718
2022-11-28T01:56:29.821Z,51.325748
2022-11-28T01:57:29.809Z,51.325748
2022-11-28T01:58:29.827Z,51.325733
2022-11-28T01:59:29.799Z,51.325760
2022-11-28T02:00:29.755Z,51.325748
2022-11-28T02:01:30.072Z,51.325756
2022-11-28T02:02:29.757Z,51.325745
2022-11-28T02:03:29.737Z,51.325783
2022-11-28T02:04:29.831Z,51.325760
2022-11-28T02:05:29.778Z,51.325752
2022-11-28T02:06:29.921Z,51.325748
2022-11-28T02:07:29.663Z,51.325729
2022-11-28T02:08:29.647Z,51.325710
2022-11-28T02:09:29.593Z,51.325710
2022-11-28T02:10:29.893Z,51.325710
2022-11-28T02:11:29.644Z,51.325802
2022-11-28T02:12:29.558Z,51.325809
2022-11-28T02:13:29.736Z,51.325768
2022-11-28T02:14:29.950Z,51.325745
2022-11-28T02:15:29.812Z,51.325745
2022-11-28T02:16:29.810Z,51.325726
2022-11-28T02:17:29.643Z,51.325722
2022-11-28T02:18:29.493Z,51.325733
2022-11-28T02:19:29.428Z,51.325699
2022-11-28T02:20:29.415Z,51.325653
2022-11-28T02:21:29.634Z,51.325699
2022-11-28T02:22:29.721Z,51.325794
2022-11-28T02:23:29.941Z,51.325771
2022-11-28T02:24:29.649Z,51.325787
2022-11-28T02:25:29.570Z,51.325691
2022-11-28T02:26:29.605Z,51.325722
2022-11-28T02:27:29.360Z,51.325687
2022-11-28T02:28:29.277Z,51.325691
2022-11-28T02:29:29.291Z,51.325760
2022-11-28T02:30:29.248Z,51.325741
2022-11-28T02:31:29.314Z,51.325764
2022-11-28T02:32:29.214Z,51.325741
2022-11-28T02:33:29.294Z,51.325733
2022-11-28T02:34:29.213Z,51.325752
2022-11-28T02:35:29.160Z,51.325783
2022-11-28T02:36:29.384Z,51.325764
2022-11-28T02:37:29.369Z,51.325733
2022-11-28T02:38:29.116Z,51.325737
2022-11-28T02:39:29.259Z,51.325756
2022-11-28T02:40:29.083Z,51.325756
2022-11-28T02:41:29.052Z,51.325718
2022-11-28T02:42:29.044Z,51.325680
2022-11-28T02:43:29.132Z,51.325695
2022-11-28T02:44:29.162Z,51.325714
2022-11-28T02:45:28.984Z,51.325783
2022-11-28T02:46:29.060Z,51.325748
2022-11-28T02:47:28.952Z,51.325752
2022-11-28T02:48:28.938Z,51.325752
2022-11-28T02:49:29.200Z,51.325760
2022-11-28T02:50:28.921Z,51.325760
2022-11-28T02:51:28.901Z,51.325756
2022-11-28T02:52:28.882Z,51.325764
2022-11-28T02:53:28.883Z,51.325787
2022-11-28T02:54:28.906Z,51.325806
2022-11-28T02:55:28.826Z,51.325775
2022-11-28T02:56:28.797Z,51.325817
2022-11-28T02:57:28.931Z,51.325752
2022-11-28T02:58:28.772Z,51.325726
2022-11-28T02:59:28.843Z,51.325745
2022-11-28T03:00:28.780Z,51.325741
2022-11-28T03:01:28.811Z,51.325775
2022-11-28T03:02:28.795Z,51.325794
2022-11-28T03:03:28.682Z,51.325798
2022-11-28T03:04:28.703Z,51.325794
2022-11-28T03:05:28.645Z,51.325775
2022-11-28T03:06:28.625Z,51.325775
2022-11-28T03:07:28.658Z,51.325771
2022-11-28T03:08:28.590Z,51.325771
2022-11-28T03:09:28.621Z,51.325756
2022-11-28T03:10:28.575Z,51.325752
2022-11-28T03:11:28.544Z,51.325771
2022-11-28T03:12:28.534Z,51.325809
2022-11-28T03:13:28.515Z,51.325768
2022-11-28T03:14:28.517Z,51.325760
2022-11-28T03:15:28.543Z,51.325794
2022-11-28T03:16:28.547Z,51.325787
2022-11-28T03:17:28.438Z,51.325787
2022-11-28T03:18:28.429Z,51.325790
2022-11-28T03:19:28.439Z,51.325764
2022-11-28T03:20:28.401Z,51.325775
2022-11-28T03:21:28.374Z,51.325752
2022-11-28T03:22:28.352Z,51.325760
2022-11-28T03:23:28.362Z,51.325741
2022-11-28T03:24:28.361Z,51.325768
2022-11-28T03:25:28.295Z,51.325829
2022-11-28T03:26:28.282Z,51.325771
2022-11-28T03:27:28.263Z,51.325748
2022-11-28T03:28:28.242Z,51.325718
2022-11-28T03:29:28.257Z,51.325672
2022-11-28T03:30:28.202Z,51.325764
2022-11-28T03:31:28.356Z,51.325832
2022-11-28T03:32:28.178Z,51.325832
2022-11-28T03:33:28.174Z,51.325775
2022-11-28T03:34:28.179Z,51.325806
2022-11-28T03:35:28.132Z,51.325802
2022-11-28T03:36:28.108Z,51.325863
2022-11-28T03:37:28.095Z,51.325825
2022-11-28T03:38:28.066Z,51.325787
2022-11-28T03:39:28.093Z,51.325779
2022-11-28T03:40:28.036Z,51.325756
2022-11-28T03:41:28.025Z,51.325726
2022-11-28T03:42:28.151Z,51.325760
2022-11-28T03:43:27.984Z,51.325722
2022-11-28T03:44:28.046Z,51.325642
2022-11-28T03:45:27.954Z,51.325672
2022-11-28T03:46:27.960Z,51.325695
2022-11-28T03:47:27.984Z,51.325844
2022-11-28T03:48:27.911Z,51.325863
2022-11-28T03:49:27.923Z,51.325871
2022-11-28T03:50:27.867Z,51.325775
2022-11-28T03:51:27.847Z,51.325714
2022-11-28T03:52:27.841Z,51.325741
2022-11-28T03:53:27.807Z,51.325691
2022-11-28T03:54:27.818Z,51.325626
2022-11-28T03:55:27.891Z,51.325733
2022-11-28T03:56:27.761Z,51.325722
2022-11-28T03:57:27.747Z,51.325737
2022-11-28T03:58:27.730Z,51.325756
2022-11-28T03:59:27.738Z,51.325756
2022-11-28T04:00:27.696Z,51.325825
2022-11-28T04:01:27.740Z,51.325809
2022-11-28T04:02:27.656Z,51.325813
2022-11-28T04:03:27.811Z,51.325737
2022-11-28T04:04:27.648Z,51.325706
2022-11-28T04:05:27.615Z,51.325706
2022-11-28T04:06:27.592Z,51.325722
2022-11-28T04:07:27.685Z,51.325802
2022-11-28T04:08:27.552Z,51.325794
2022-11-28T04:09:27.568Z,51.325745
2022-11-28T04:10:27.512Z,51.325848
2022-11-28T04:11:27.505Z,51.325851
2022-11-28T04:12:27.488Z,51.325897
2022-11-28T04:13:27.480Z,51.325832
2022-11-28T04:14:27.487Z,51.325794
2022-11-28T04:15:27.438Z,51.325790
2022-11-28T04:16:27.475Z,51.325703
2022-11-28T04:17:27.400Z,51.325672
2022-11-28T04:18:27.376Z,51.325741
2022-11-28T04:19:27.482Z,51.325779
2022-11-28T04:20:27.345Z,51.325764
2022-11-28T04:21:27.324Z,51.325790
2022-11-28T04:22:27.312Z,51.325775
2022-11-28T04:23:27.286Z,51.325764
2022-11-28T04:24:27.305Z,51.325794
2022-11-28T04:25:27.261Z,51.325859
2022-11-28T04:26:27.237Z,51.325733
2022-11-28T04:27:27.222Z,51.325752
2022-11-28T04:28:27.215Z,51.325783
2022-11-28T04:29:27.235Z,51.325790
2022-11-28T04:30:27.181Z,51.325794
2022-11-28T04:31:27.187Z,51.325768
2022-11-28T04:32:27.161Z,51.325790
2022-11-28T04:33:27.116Z,51.325760
2022-11-28T04:34:27.131Z,51.325764
2022-11-28T04:35:27.163Z,51.325768
2022-11-28T04:36:27.073Z,51.325714
2022-11-28T04:37:27.044Z,51.325748
2022-11-28T04:38:27.032Z,51.325768
2022-11-28T04:39:27.046Z,51.325760
2022-11-28T04:40:27.007Z,51.325752
2022-11-28T04:41:27.001Z,51.325764
2022-11-28T04:42:26.970Z,51.325779
2022-11-28T04:43:27.045Z,51.325768
2022-11-28T04:44:26.981Z,51.325764
2022-11-28T04:45:26.981Z,51.325764
2022-11-28T04:46:26.948Z,51.325768
2022-11-28T04:47:26.885Z,51.325752
2022-11-28T04:48:32.742Z,51.325809
2022-11-28T04:49:28.888Z,51.325779
2022-11-28T04:50:26.830Z,51.325794
2022-11-28T04:51:26.887Z,51.325787
2022-11-28T04:52:26.795Z,51.325748
2022-11-28T04:53:26.775Z,51.325741
2022-11-28T04:54:26.795Z,51.325771
2022-11-28T04:55:26.743Z,51.325768
2022-11-28T04:56:26.731Z,51.325771
2022-11-28T04:57:26.709Z,51.325768
2022-11-28T04:58:26.686Z,51.325756
2022-11-28T04:59:26.727Z,51.325779
2022-11-28T05:00:26.666Z,51.325745
2022-11-28T05:01:26.745Z,51.325729
2022-11-28T05:02:26.704Z,51.325729
2022-11-28T05:03:26.605Z,51.325714
2022-11-28T05:04:26.621Z,51.325771
2022-11-28T05:05:26.571Z,51.325779
2022-11-28T05:06:26.561Z,51.325756
2022-11-28T05:07:26.869Z,51.325756
2022-11-28T05:08:26.519Z,51.325768
2022-11-28T05:09:26.531Z,51.325733
2022-11-28T05:10:26.533Z,51.325771
2022-11-28T05:11:26.695Z,51.325779
2022-11-28T05:12:27.218Z,51.325760
2022-11-28T05:13:26.809Z,51.325787
2022-11-28T05:14:26.456Z,51.325741
2022-11-28T05:15:26.393Z,51.325798
2022-11-28T05:16:26.562Z,51.325760
2022-11-28T05:17:26.368Z,51.325817
2022-11-28T05:18:26.344Z,51.325760
2022-11-28T05:19:26.765Z,51.325714
2022-11-28T05:20:26.306Z,51.325741
2022-11-28T05:21:26.307Z,51.325741
2022-11-28T05:22:26.798Z,51.325729
2022-11-28T05:23:26.362Z,51.325768
2022-11-28T05:24:31.978Z,51.325756
2022-11-28T05:25:28.229Z,51.325794
2022-11-28T05:26:26.391Z,51.325741
2022-11-28T05:27:26.207Z,51.325691
2022-11-28T05:28:26.176Z,51.325703
2022-11-28T05:29:26.206Z,51.325718
2022-11-28T05:30:26.137Z,51.325718
2022-11-28T05:31:26.201Z,51.325726
2022-11-28T05:32:26.122Z,51.325775
2022-11-28T05:33:26.104Z,51.325787
2022-11-28T05:34:26.261Z,51.325760
2022-11-28T05:35:26.099Z,51.325764
2022-11-28T05:36:26.049Z,51.325726
2022-11-28T05:37:26.022Z,51.325737
2022-11-28T05:38:26.015Z,51.325748
2022-11-28T05:39:26.216Z,51.325733
2022-11-28T05:40:26.013Z,51.325760
2022-11-28T05:41:25.951Z,51.325741
2022-11-28T05:42:25.946Z,51.325714
2022-11-28T05:43:25.917Z,51.325733
2022-11-28T05:44:27.197Z,51.325722
2022-11-28T05:45:27.075Z,51.325737
2022-11-28T05:46:25.872Z,51.325722
2022-11-28T05:47:26.200Z,51.325703
2022-11-28T05:48:25.822Z,51.325733
2022-11-28T05:49:27.027Z,51.325714
2022-11-28T05:50:25.834Z,51.325737
2022-11-28T05:51:25.798Z,51.325748
2022-11-28T05:52:25.761Z,51.325760
2022-11-28T05:53:25.759Z,51.325729
2022-11-28T05:54:25.734Z,51.325745
2022-11-28T05:55:25.838Z,51.325729
2022-11-28T05:56:25.701Z,51.325733
2022-11-28T05:57:25.683Z,51.325790
2022-11-28T05:58:25.658Z,51.325779
2022-11-28T05:59:25.642Z,51.325726
2022-11-28T06:00:25.656Z,51.325764
2022-11-28T06:01:25.636Z,51.325783
2022-11-28T06:02:25.734Z,51.325752
2022-11-28T06:03:25.623Z,51.325733
2022-11-28T06:04:25.657Z,51.325691
2022-11-28T06:05:41.719Z,51.325790
2022-11-28T06:06:27.530Z,51.325790
2022-11-28T06:07:25.574Z,51.325726
2022-11-28T06:08:25.520Z,51.325806
2022-11-28T06:09:26.236Z,51.325790
2022-11-28T06:10:26.536Z,51.325764
2022-11-28T06:11:25.497Z,51.325756
2022-11-28T06:12:25.423Z,51.325748
2022-11-28T06:13:25.399Z,51.325741
2022-11-28T06:14:25.383Z,51.325802
2022-11-28T06:15:25.435Z,51.325806
2022-11-28T06:16:25.469Z,51.325779
2022-11-28T06:17:25.340Z,51.325794
2022-11-28T06:18:25.319Z,51.325760
2022-11-28T06:19:25.295Z,51.325695
2022-11-28T06:20:25.323Z,51.325748
2022-11-28T06:21:25.256Z,51.325768
2022-11-28T06:22:25.241Z,51.325741
2022-11-28T06:23:25.232Z,51.325779
2022-11-28T06:24:25.397Z,51.325775
2022-11-28T06:25:25.225Z,51.325787
2022-11-28T06:26:25.177Z,51.325779
2022-11-28T06:27:25.227Z,51.325787
2022-11-28T06:28:25.147Z,51.325771
2022-11-28T06:29:25.250Z,51.325756
2022-11-28T06:30:25.143Z,51.325775
2022-11-28T06:31:25.123Z,51.325760
2022-11-28T06:32:25.073Z,51.325745
2022-11-28T06:33:25.156Z,51.325741
2022-11-28T06:34:25.037Z,51.325741
2022-11-28T06:35:25.077Z,51.325768
2022-11-28T06:36:25.077Z,51.325794
2022-11-28T06:37:25.126Z,51.325783
2022-11-28T06:38:24.985Z,51.325829
2022-11-28T06:39:25.043Z,51.325794
2022-11-28T06:40:24.963Z,51.325779
2022-11-28T06:41:24.922Z,51.325775
2022-11-28T06:42:24.908Z,51.325756
2022-11-28T06:43:24.996Z,51.325779
2022-11-28T06:44:25.011Z,51.325768
2022-11-28T06:45:24.985Z,51.325737
2022-11-28T06:46:24.889Z,51.325619
2022-11-28T06:47:25.003Z,51.325653
2022-11-28T06:48:24.803Z,51.325787
2022-11-28T06:49:24.799Z,51.325756
2022-11-28T06:50:24.813Z,51.325760
2022-11-28T06:51:24.810Z,51.325798
2022-11-28T06:52:25.744Z,51.325783
2022-11-28T06:53:28.662Z,51.325760
2022-11-28T06:54:26.946Z,51.325737
2022-11-28T06:55:24.717Z,51.325760
2022-11-28T06:56:24.671Z,51.325764
2022-11-28T06:57:24.656Z,51.325787
2022-11-28T06:58:24.640Z,51.325752
2022-11-28T06:59:24.691Z,51.325764
2022-11-28T07:00:24.646Z,51.325829
2022-11-28T07:01:24.604Z,51.325672
2022-11-28T07:02:24.588Z,51.325680
2022-11-28T07:03:24.641Z,51.325745
2022-11-28T07:04:24.550Z,51.325630
2022-11-28T07:05:24.585Z,51.325584
2022-11-28T07:06:24.605Z,51.325623
2022-11-28T07:07:24.503Z,51.325588
2022-11-28T07:08:24.512Z,51.325531
2022-11-28T07:09:24.445Z,51.325760
2022-11-28T07:10:24.466Z,51.325645
2022-11-28T07:11:24.537Z,51.325794
2022-11-28T07:12:24.401Z,51.325825
2022-11-28T07:13:24.378Z,51.325867
2022-11-28T07:14:24.375Z,51.325802
2022-11-28T07:15:24.445Z,51.325863
2022-11-28T07:16:24.413Z,51.326069
2022-11-28T07:17:24.332Z,51.325840
2022-11-28T07:18:24.294Z,51.325867
2022-11-28T07:19:24.270Z,51.325874
2022-11-28T07:20:24.302Z,51.325848
2022-11-28T07:21:24.258Z,51.325733
2022-11-28T07:22:24.220Z,51.325726
2022-11-28T07:23:24.210Z,51.325874
2022-11-28T07:24:24.200Z,51.325882
2022-11-28T07:25:24.195Z,51.325787
2022-11-28T07:26:24.152Z,51.325840
2022-11-28T07:27:24.341Z,51.325939
2022-11-28T07:28:24.218Z,51.325928
2022-11-28T07:29:24.346Z,51.326019
2022-11-28T07:30:24.161Z,51.325905
2022-11-28T07:31:24.163Z,51.325874
2022-11-28T07:32:24.072Z,51.325932
2022-11-28T07:33:24.202Z,51.325882
2022-11-28T07:34:24.014Z,51.325802
2022-11-28T07:35:24.038Z,51.325745
2022-11-28T07:36:23.999Z,51.325691
2022-11-28T07:37:24.022Z,51.325737
2022-11-28T07:38:23.962Z,51.325756
2022-11-28T07:39:24.319Z,51.325752
2022-11-28T07:40:23.955Z,51.325802
2022-11-28T07:41:26.703Z,51.325768
2022-11-28T07:42:24.900Z,51.325726
2022-11-28T07:43:23.853Z,51.325764
2022-11-28T07:44:24.240Z,51.325771
2022-11-28T07:45:32.977Z,51.325752
2022-11-28T07:46:24.922Z,51.325706
2022-11-28T07:47:23.798Z,51.325760
2022-11-28T07:48:23.777Z,51.325764
2022-11-28T07:49:23.760Z,51.325779
2022-11-28T07:50:23.791Z,51.325817
2022-11-28T07:51:23.737Z,51.325813
2022-11-28T07:52:23.702Z,51.325756
2022-11-28T07:53:23.687Z,51.325768
2022-11-28T07:54:23.674Z,51.325798
2022-11-28T07:55:23.730Z,51.325768
2022-11-28T07:56:23.824Z,51.325756
2022-11-28T07:57:23.608Z,51.325745
2022-11-28T07:58:23.603Z,51.325783
2022-11-28T07:59:23.841Z,51.325809
2022-11-28T08:00:23.630Z,51.325779
2022-11-28T08:01:23.563Z,51.325809
2022-11-28T08:02:23.565Z,51.325775
2022-11-28T08:03:23.527Z,51.325752
2022-11-28T08:04:23.573Z,51.325768
2022-11-28T08:05:23.522Z,51.325764
2022-11-28T08:06:23.466Z,51.325821
2022-11-28T08:07:23.494Z,51.325775
2022-11-28T08:08:23.431Z,51.325764
2022-11-28T08:09:23.407Z,51.325745
2022-11-28T08:10:23.452Z,51.325779
2022-11-28T08:11:23.383Z,51.325802
2022-11-28T08:12:23.377Z,51.325809
2022-11-28T08:13:23.402Z,51.325764
2022-11-28T08:14:23.339Z,51.325775
2022-11-28T08:15:23.376Z,51.325699
2022-11-28T08:16:23.375Z,51.325737
2022-11-28T08:17:23.442Z,51.325691
2022-11-28T08:18:23.454Z,51.325706
2022-11-28T08:20:17.232Z,51.325775
2022-11-28T08:20:24.329Z,51.325752
2022-11-28T08:21:24.214Z,51.325729
2022-11-28T08:22:23.321Z,51.325756
2022-11-28T08:23:23.495Z,51.325729
2022-11-28T08:24:23.177Z,51.325741
2022-11-28T08:25:23.226Z,51.325710
2022-11-28T08:26:24.899Z,51.325710
2022-11-28T08:27:25.350Z,51.325733
2022-11-28T08:28:23.737Z,51.325726
2022-11-28T08:29:23.066Z,51.325722
2022-11-28T08:30:23.330Z,51.325790
2022-11-28T08:31:23.140Z,51.325806
2022-11-28T08:32:23.033Z,51.325752
2022-11-28T08:33:23.005Z,51.325779
2022-11-28T08:34:22.985Z,51.325726
2022-11-28T08:35:22.994Z,51.325798
2022-11-28T08:36:23.054Z,51.325752
2022-11-28T08:37:22.929Z,51.325756
2022-11-28T08:38:22.920Z,51.325706
2022-11-28T08:39:24.483Z,51.325710
2022-11-28T08:40:24.081Z,51.325764
2022-11-28T08:41:22.864Z,51.325771
2022-11-28T08:42:22.841Z,51.325817
2022-11-28T08:43:23.132Z,51.325794
2022-11-28T08:44:22.812Z,51.325722
2022-11-28T08:45:23.151Z,51.325665
2022-11-28T08:46:23.715Z,51.325672
2022-11-28T08:47:22.762Z,51.325626
2022-11-28T08:48:22.736Z,51.325745
2022-11-28T08:49:22.720Z,51.325775
2022-11-28T08:50:22.866Z,51.325790
2022-11-28T08:51:22.694Z,51.325676
2022-11-28T08:52:22.684Z,51.325672
2022-11-28T08:53:22.699Z,51.325680
2022-11-28T08:54:22.666Z,51.325722
2022-11-28T08:55:31.704Z,51.325718
2022-11-28T08:56:24.643Z,51.325710
2022-11-28T08:57:22.620Z,51.325756
2022-11-28T08:58:22.570Z,51.325748
2022-11-28T08:59:22.569Z,51.325768
2022-11-28T09:00:22.541Z,51.325733
2022-11-28T09:01:22.615Z,51.325771
2022-11-28T09:02:25.918Z,51.325748
2022-11-28T09:03:23.554Z,51.325737
2022-11-28T09:04:22.502Z,51.325802
2022-11-28T09:05:22.461Z,51.325733
2022-11-28T09:06:22.496Z,51.325729
2022-11-28T09:07:22.478Z,51.325706
2022-11-28T09:08:22.503Z,51.325733
2022-11-28T09:09:22.595Z,51.325748
2022-11-28T09:10:22.372Z,51.325737
2022-11-28T09:11:22.583Z,51.325775
2022-11-28T09:12:22.349Z,51.325787
2022-11-28T09:13:22.800Z,51.325802
2022-11-28T09:14:22.805Z,51.325741
2022-11-28T09:15:22.485Z,51.325687
2022-11-28T09:16:22.747Z,51.325661
2022-11-28T09:17:22.378Z,51.325729
2022-11-28T09:18:22.870Z,51.325687
2022-11-28T09:19:22.278Z,51.325722
2022-11-28T09:20:22.463Z,51.325710
2022-11-28T09:21:22.321Z,51.325684
2022-11-28T09:22:22.170Z,51.325676
2022-11-28T09:23:22.445Z,51.325680
2022-11-28T09:24:22.129Z,51.325726
2022-11-28T09:25:22.138Z,51.325714
2022-11-28T09:26:22.212Z,51.325684
2022-11-28T09:27:22.149Z,51.325722
2022-11-28T09:28:22.075Z,51.325718
2022-11-28T09:29:22.282Z,51.325703
2022-11-28T09:30:22.437Z,51.325726
2022-11-28T09:31:22.135Z,51.325726
2022-11-28T09:32:22.027Z,51.325687
2022-11-28T09:33:21.979Z,51.325783
2022-11-28T09:34:21.977Z,51.325760
2022-11-28T09:35:22.231Z,51.325748
2022-11-28T09:36:21.963Z,51.325722
2022-11-28T09:37:21.930Z,51.325710
2022-11-28T09:38:21.920Z,51.325737
2022-11-28T09:39:22.053Z,51.325809
2022-11-28T09:40:21.918Z,51.325817
2022-11-28T09:41:22.152Z,51.325863
2022-11-28T09:42:21.825Z,51.325851
2022-11-28T09:43:22.098Z,51.325893
2022-11-28T09:44:21.862Z,51.325809
2022-11-28T09:45:22.162Z,51.325821
2022-11-28T09:46:21.943Z,51.325817
2022-11-28T09:47:22.798Z,51.325752
2022-11-28T09:48:22.167Z,51.325748
2022-11-28T09:49:21.715Z,51.325729
2022-11-28T09:50:22.025Z,51.325768
2022-11-28T09:51:21.853Z,51.325752
2022-11-28T09:52:21.902Z,51.325714
2022-11-28T09:53:22.595Z,51.325729
2022-11-28T09:54:22.009Z,51.325760
2022-11-28T09:55:22.072Z,51.325768
2022-11-28T09:56:22.007Z,51.325802
2022-11-28T09:57:22.508Z,51.325752
2022-11-28T09:58:22.206Z,51.325722
2022-11-28T09:59:21.936Z,51.325729
2022-11-28T10:00:21.784Z,51.325703
2022-11-28T10:01:21.623Z,51.325752
2022-11-28T10:02:22.692Z,51.325718
2022-11-28T10:03:22.803Z,51.325745
2022-11-28T10:04:21.590Z,51.325729
2022-11-28T10:05:21.543Z,51.325726
2022-11-28T10:06:21.823Z,51.325714
2022-11-28T10:07:21.553Z,51.325726
2022-11-28T10:08:21.815Z,51.325729
2022-11-28T10:09:21.462Z,51.325733
2022-11-28T10:10:21.405Z,51.325695
2022-11-28T10:11:21.529Z,51.325733
2022-11-28T10:12:22.229Z,51.325691
2022-11-28T10:13:21.947Z,51.325645
2022-11-28T10:14:22.014Z,51.325657
2022-11-28T10:15:22.125Z,51.325790
2022-11-28T10:16:21.364Z,51.325878
2022-11-28T10:17:21.264Z,51.325779
2022-11-28T10:18:21.275Z,51.325741
2022-11-28T10:19:46.569Z,51.325733
2022-11-28T10:20:23.248Z,51.325668
2022-11-28T10:21:21.259Z,51.325748
2022-11-28T10:22:21.281Z,51.325779
2022-11-28T10:23:21.247Z,51.325737
2022-11-28T10:24:21.175Z,51.325691
2022-11-28T10:25:21.172Z,51.325794
2022-11-28T10:26:21.220Z,51.325798
2022-11-28T10:27:26.638Z,51.325775
2022-11-28T10:28:23.106Z,51.325760
2022-11-28T10:29:21.121Z,51.325748
2022-11-28T10:30:21.055Z,51.325775
2022-11-28T10:31:21.246Z,51.325825
2022-11-28T10:32:21.064Z,51.325798
2022-11-28T10:33:22.003Z,51.325787
2022-11-28T10:34:20.985Z,51.325813
2022-11-28T10:35:26.705Z,51.325829
2022-11-28T10:36:23.004Z,51.325794
2022-11-28T10:37:20.969Z,51.325794
2022-11-28T10:38:20.984Z,51.325748
2022-11-28T10:39:20.915Z,51.325817
2022-11-28T10:40:20.953Z,51.325787
2022-11-28T10:41:20.984Z,51.325779
2022-11-28T10:42:20.818Z,51.325748
2022-11-28T10:43:20.867Z,51.325752
2022-11-28T10:44:21.771Z,51.325787
2022-11-28T10:45:21.845Z,51.325798
2022-11-28T10:46:20.929Z,51.325729
2022-11-28T10:47:20.732Z,51.325630
2022-11-28T10:48:39.192Z,51.325672
2022-11-28T10:49:22.691Z,51.325798
2022-11-28T10:50:20.672Z,51.325726
2022-11-28T10:51:20.695Z,51.325764
2022-11-28T10:52:20.652Z,51.325871
2022-11-28T10:53:20.643Z,51.325909
2022-11-28T10:54:20.632Z,51.326012
2022-11-28T10:55:20.612Z,51.326000
2022-11-28T10:56:20.641Z,51.326038
2022-11-28T10:57:20.560Z,51.325962
2022-11-28T10:58:20.539Z,51.325932
2022-11-28T10:59:20.584Z,51.325932
2022-11-28T11:00:20.501Z,51.325932
2022-11-28T11:01:20.682Z,51.325600
2022-11-28T11:02:20.468Z,51.325481
2022-11-28T11:03:20.458Z,51.325630
2022-11-28T11:04:20.516Z,51.325546
2022-11-28T11:05:20.417Z,51.325546
2022-11-28T11:06:20.436Z,51.325607
2022-11-28T11:07:25.063Z,51.325630
2022-11-28T11:08:22.435Z,51.325649
2022-11-28T11:09:20.349Z,51.325634
2022-11-28T11:10:20.347Z,51.325634
2022-11-28T11:11:20.375Z,51.325630
2022-11-28T11:12:20.308Z,51.325653
2022-11-28T11:13:20.286Z,51.325645
2022-11-28T11:14:20.272Z,51.325638
2022-11-28T11:15:20.245Z,51.325676
2022-11-28T11:16:20.360Z,51.325668
2022-11-28T11:17:20.245Z,51.325645
2022-11-28T11:18:20.205Z,51.325626
2022-11-28T11:19:20.482Z,51.325703
2022-11-28T11:20:20.186Z,51.325706
2022-11-28T11:21:20.176Z,51.325737
2022-11-28T11:22:20.135Z,51.325748
2022-11-28T11:23:20.111Z,51.325752
2022-11-28T11:24:20.095Z,51.325748